Latest Weather Observations for Windorah

IDQ60801

Issued at 12:22 pm EST Friday 4 December 2020 (issued every 10 minutes, with the page automatically refreshed every 10 minutes)

About weather observations | Map of weather stations | Latest weather observations for QLD | Other Formats
Station Details ID: 038076 Name: WINDORAH AIRPORT Lat: -25.41 Lon: 142.66 Height: 132.16 m
Data from the previous 72 hours. | See also: Recent months at Windorah
Date/Time
EST
Temp
°C
App
Temp
°C
Dew
Point
°C
Rel
Hum
%
Delta-T
°C
Wind Press
QNH
hPa
Press
MSL
hPa
Rain since
9am
mm
Dir  Spd
km/h
Gust
km/h
Spd
kts
Gust
kts
04/12:00pm 38.9 35.3 11.9 20 16.4 N 22 33 12 18 1011.1 1010.1 0.0
04/11:30am 38.2 34.8 11.3 20 16.1 N 20 32 11 17 1011.6 1010.6 0.0
04/11:00am 38.1 34.2 12.0 21 15.8 N 24 39 13 21 1012.0 1011.0 0.0
04/10:30am 36.6 32.5 11.4 22 15.1 N 24 33 13 18 1012.4 1011.4 0.0
04/10:00am 36.3 32.9 12.5 24 14.4 N 22 32 12 17 1012.7 1011.7 0.0
04/09:30am 35.7 32.5 13.2 26 13.8 N 22 32 12 17 1013.0 1012.0 0.0
04/09:00am 34.7 30.9 13.5 28 13.0 N 26 35 14 19 1013.3 1012.3 0.0
04/08:30am 33.0 29.2 13.6 31 11.8 NNE 26 37 14 20 1013.1 1012.1 0.0
04/08:00am 32.5 28.4 13.7 32 11.4 NNE 28 39 15 21 1013.2 1012.2 0.0
04/07:30am 32.1 28.4 13.8 33 11.1 NNE 26 35 14 19 1013.1 1012.1 0.0
04/07:00am 31.8 27.8 14.0 34 10.9 NNE 28 43 15 23 1012.6 1011.6 0.0
04/06:30am 31.5 28.4 14.6 36 10.4 NE 24 33 13 18 1012.3 1011.3 0.0
04/06:00am 31.2 28.3 15.2 38 9.9 NE 24 37 13 20 1011.9 1010.9 0.0
04/05:30am 30.9 28.2 15.7 39 9.5 NE 24 35 13 19 1011.5 1010.5 0.0
04/05:00am 31.0 27.8 16.2 41 9.3 NE 28 39 15 21 1011.3 1010.3 0.0
04/04:30am 30.9 27.8 16.5 42 9.1 NE 28 39 15 21 1011.4 1010.4 0.0
04/04:00am 31.0 27.7 17.0 43 8.9 ENE 30 37 16 20 1011.2 1010.2 0.0
04/03:30am 30.9 26.5 17.6 45 8.5 ENE 37 48 20 26 1010.7 1009.8 0.0
04/03:00am 30.8 26.1 17.8 45 8.4 ENE 39 52 21 28 1010.7 1009.8 0.0
04/02:40am 30.6 25.8 18.3 47 8.0 ENE 41 63 22 34 1010.7 1009.8 0.0
04/02:30am 30.5 25.4 18.6 49 7.7 ENE 43 57 23 31 1010.7 1009.8 0.0
04/02:04am 30.8 27.2 18.5 47 8.0 ENE 35 54 19 29 1010.9 1009.9 0.0
04/02:00am 30.8 26.9 18.8 48 7.8 ENE 37 54 20 29 1010.9 1009.9 0.0
04/01:30am 30.9 27.5 18.9 48 7.8 E 35 48 19 26 1011.2 1010.2 0.0
04/01:00am 31.0 28.1 18.0 45 8.4 ENE 30 41 16 22 1011.3 1010.3 0.0
04/12:30am 31.2 27.4 17.1 42 9.0 ENE 33 43 18 23 1011.2 1010.2 0.0
04/12:07am 33.5 29.0 16.4 36 10.9 E 35 54 19 29 1010.6 1009.7 0.0
04/12:00am 33.7 28.3 16.1 34 11.1 E 39 52 21 28 1010.5 1009.6 0.0
 
Date/Time
EST
Temp
°C
App
Temp
°C
Dew
Point
°C
Rel
Hum
%
Delta-T
°C
Wind Press
QNH
hPa
Press
MSL
hPa
Rain since
9am
mm
Dir  Spd
km/h
Gust
km/h
Spd
kts
Gust
kts
03/11:45pm 34.9 29.2 16.2 32 11.9 E 41 59 22 32 1010.2 1009.3 0.0
03/11:30pm 36.2 31.1 15.9 30 12.9 E 37 52 20 28 1009.9 1009.0 0.0
03/11:18pm 36.5 32.0 15.0 27 13.5 ESE 32 54 17 29 1010.0 1009.1 0.0
03/11:00pm 37.3 32.5 14.6 26 14.2 ESE 33 44 18 24 1010.0 1009.1 0.0
03/10:30pm 38.3 34.7 10.6 19 16.5 S 20 32 11 17 1009.5 1008.6 0.0
03/10:00pm 37.5 35.2 7.4 16 17.0 NNW 9 11 5 6 1009.0 1008.1 0.0
03/09:30pm 38.1 36.1 7.0 15 17.5 WNW 7 7 4 4 1009.0 1008.1 0.0
03/09:00pm 38.2 35.8 7.0 15 17.6 WNW 9 11 5 6 1008.9 1008.0 0.0
03/08:30pm 39.2 37.1 6.8 14 18.3 NW 7 15 4 8 1008.8 1007.9 0.0
03/08:00pm 39.7 38.4 6.1 13 18.8 W 2 6 1 3 1008.6 1007.7 0.0
03/07:30pm 40.5 38.2 5.6 12 19.5 WNW 7 9 4 5 1008.4 1007.5 0.0
03/07:00pm 41.5 38.7 5.1 11 20.3 W 9 11 5 6 1008.1 1007.1 0.0
03/06:30pm 42.2 38.7 5.6 11 20.6 WNW 13 17 7 9 1007.9 1006.9 0.0
03/06:00pm 43.0 40.0 6.2 11 21.0 WNW 11 13 6 7 1007.6 1006.6 0.0
03/05:30pm 43.4 40.5 6.5 11 21.1 NW 11 19 6 10 1007.6 1006.6 0.0
03/05:00pm 43.2 39.9 6.4 11 21.1 NNW 13 20 7 11 1007.6 1006.6 0.0
03/04:30pm 43.4 39.7 6.5 11 21.1 NNW 15 22 8 12 1007.7 1006.7 0.0
03/04:00pm 43.5 39.2 5.2 10 21.6 NNE 17 22 9 12 1007.9 1006.9 0.0
03/03:30pm 43.5 40.7 5.2 10 21.5 NE 9 15 5 8 1008.1 1007.1 0.0
03/03:00pm 44.2 40.8 5.8 10 21.9 NNW 13 22 7 12 1008.5 1007.6 0.0
03/02:30pm 44.3 41.3 4.3 9 22.3 SSE 9 19 5 10 1008.7 1007.8 0.0
03/02:00pm 43.7 40.7 3.9 9 22.0 ENE 9 15 5 8 1009.2 1008.3 0.0
03/01:30pm 45.0 41.7 4.8 9 22.6 WNW 11 17 6 9 1009.6 1008.7 0.0
03/01:00pm 43.7 39.8 5.4 10 21.7 ENE 15 22 8 12 1009.9 1009.0 0.0
03/12:30pm 43.3 40.9 5.1 10 21.4 NNW 7 20 4 11 1010.3 1009.4 0.0
03/12:00pm 42.7 38.6 4.6 10 21.2 N 15 26 8 14 1010.5 1009.6 0.0
03/11:30am 42.4 38.7 4.4 10 21.0 NE 13 24 7 13 1010.7 1009.8 0.0
03/11:00am 41.7 38.7 3.9 10 20.7 N 9 15 5 8 1011.1 1010.1 0.0
03/10:30am 41.0 37.3 4.7 11 20.0 NNE 13 19 7 10 1011.3 1010.3 0.0
03/10:00am 39.5 36.0 3.6 11 19.4 SE 11 15 6 8 1011.6 1010.6 0.0
03/09:30am 39.1 35.4 4.5 12 18.9 ESE 13 20 7 11 1011.7 1010.7 0.0
03/09:00am 37.7 33.0 3.4 12 18.3 ESE 17 24 9 13 1011.9 1010.9 0.0
03/08:30am 36.9 31.8 4.0 13 17.6 ESE 20 28 11 15 1011.9 1010.9 0.0
03/08:00am 36.0 30.0 3.3 13 17.2 ESE 24 33 13 18 1011.8 1010.8 0.0
03/07:30am 35.1 29.5 3.6 14 16.6 SE 22 30 12 16 1012.0 1011.0 0.0
03/07:00am 34.4 29.3 4.0 15 16.1 SE 20 28 11 15 1011.8 1010.8 0.0
03/06:30am 33.7 29.1 3.5 15 15.7 SE 17 24 9 13 1011.7 1010.7 0.0
03/06:00am 33.5 29.0 4.2 16 15.4 SE 17 20 9 11 1011.2 1010.2 0.0
03/05:30am 33.6 29.1 4.3 16 15.5 SSE 17 24 9 13 1010.9 1009.9 0.0
03/05:00am 33.4 30.4 4.2 16 15.4 WNW 9 13 5 7 1011.0 1010.0 0.0
03/04:30am 33.7 28.7 3.5 15 15.7 SE 19 28 10 15 1010.2 1009.3 0.0
03/04:00am 33.8 28.6 3.6 15 15.8 SE 20 28 11 15 1010.0 1009.1 0.0
03/03:30am 34.0 29.0 3.7 15 15.9 SE 19 28 10 15 1009.8 1008.9 0.0
03/03:00am 34.1 28.9 3.8 15 15.9 SE 20 30 11 16 1009.6 1008.7 0.0
03/02:30am 34.6 29.7 4.2 15 16.1 SE 19 28 10 15 1009.6 1008.7 0.0
03/02:00am 35.0 30.0 4.5 15 16.3 SE 20 28 11 15 1009.7 1008.8 0.0
03/01:30am 35.6 30.7 5.0 15 16.5 SE 20 28 11 15 1010.0 1009.1 0.0
03/01:00am 36.1 31.1 6.3 16 16.5 SE 22 33 12 18 1010.3 1009.4 0.0
03/12:30am 36.4 31.4 6.6 16 16.6 SSE 22 32 12 17 1010.4 1009.5 0.0
03/12:00am 36.7 31.8 6.8 16 16.7 SSE 22 30 12 16 1010.5 1009.6 0.0
 
Date/Time
EST
Temp
°C
App
Temp
°C
Dew
Point
°C
Rel
Hum
%
Delta-T
°C
Wind Press
QNH
hPa
Press
MSL
hPa
Rain since
9am
mm
Dir  Spd
km/h
Gust
km/h
Spd
kts
Gust
kts
02/11:30pm 37.6 31.9 6.6 15 17.3 SSE 26 41 14 22 1010.6 1009.7 0.0
02/11:00pm 38.0 32.0 6.9 15 17.5 SSE 28 43 15 23 1010.7 1009.8 0.0
02/10:45pm 38.1 32.1 7.0 15 17.5 SSE 28 39 15 21 1010.6 1009.7 0.0
02/10:30pm 36.0 32.7 4.3 14 17.0 WNW 11 20 6 11 1010.5 1009.6 0.0
02/10:00pm 37.3 34.0 4.3 13 17.8 N 11 13 6 7 1010.1 1009.2 0.0
02/09:30pm 38.0 34.5 3.7 12 18.4 NNE 11 13 6 7 1010.0 1009.1 0.0
02/09:00pm 38.4 35.2 2.8 11 18.9 NE 9 11 5 6 1010.0 1009.1 0.0
02/08:30pm 39.4 36.7 3.5 11 19.3 N 7 9 4 5 1009.8 1008.9 0.0
02/08:00pm 41.0 37.9 3.4 10 20.4 NNE 9 11 5 6 1009.5 1008.6 0.0
02/07:30pm 41.4 38.1 2.2 9 20.9 NE 9 9 5 5 1009.3 1008.4 0.0
02/07:00pm 42.8 39.0 1.6 8 22.0 ENE 11 15 6 8 1009.0 1008.1 0.0
02/06:30pm 43.7 41.3 2.2 8 22.4 W 4 7 2 4 1008.8 1007.9 0.0
02/06:00pm 43.6 40.6 2.1 8 22.4 S 7 11 4 6 1008.6 1007.7 0.0
02/05:30pm 43.5 40.1 2.1 8 22.3 SSE 9 15 5 8 1008.6 1007.7 0.0
02/05:00pm 43.9 41.2 2.4 8 22.5 NE 6 7 3 4 1008.4 1007.5 0.0
02/04:30pm 44.8 40.1 3.0 8 22.9 E 17 26 9 14 1008.4 1007.5 0.0
02/04:00pm 43.7 39.6 2.2 8 22.4 NNE 13 20 7 11 1008.6 1007.7 0.0
02/03:30pm 44.4 40.0 2.7 8 22.7 N 15 24 8 13 1008.8 1007.9 0.0
02/03:00pm 44.1 39.7 2.5 8 22.6 NE 15 26 8 14 1009.0 1008.1 0.0
02/02:30pm 43.1 38.9 1.8 8 22.1 SSE 13 26 7 14 1009.1 1008.2 0.0
02/02:00pm 43.7 39.6 2.2 8 22.4 NNE 13 24 7 13 1009.5 1008.6 0.0
02/01:30pm 43.7 40.4 2.2 8 22.4 NNE 9 19 5 10 1010.0 1009.1 0.0
02/01:00pm 42.6 39.4 3.1 9 21.5 SSW 9 15 5 8 1010.5 1009.6 0.0
02/12:30pm 42.2 38.2 2.8 9 21.3 E 13 20 7 11 1011.1 1010.1 0.0
02/12:00pm 41.2 38.3 4.9 11 20.1 WSW 9 15 5 8 1011.5 1010.5 0.0
02/11:30am 41.2 38.0 4.9 11 20.1 SE 11 17 6 9 1011.8 1010.8 0.0
02/11:00am 40.5 38.6 6.7 13 19.2 SSW 6 15 3 8 1012.2 1011.2 0.0
02/10:30am 39.4 36.6 7.0 14 18.4 E 11 22 6 12 1012.3 1011.3 0.0
02/10:00am 39.1 36.5 7.7 15 18.0 SSE 11 19 6 10 1012.5 1011.5 0.0
02/09:30am 37.6 34.8 8.4 17 16.8 ESE 13 19 7 10 1012.7 1011.7 0.0
02/09:00am 36.6 34.2 11.4 22 15.1 ESE 15 20 8 11 1012.7 1011.7 0.0
02/08:30am 35.4 32.7 11.7 23 14.2 ESE 17 24 9 13 1012.7 1011.7 0.0
02/08:00am 34.9 31.9 12.0 25 13.7 SE 19 22 10 12 1012.6 1011.6 0.0
02/07:30am 33.8 30.7 12.2 27 12.9 SE 20 26 11 14 1012.4 1011.4 0.0
02/07:00am 33.1 30.8 11.6 27 12.7 SSE 15 19 8 10 1012.2 1011.2 0.0
02/06:30am 31.9 29.6 7.5 22 13.4 SSW 9 11 5 6 1011.7 1010.7 0.0
02/06:00am 31.5 29.0 6.5 21 13.5 SSE 9 13 5 7 1011.1 1010.1 0.0
02/05:30am 31.4 30.4 5.8 20 13.7 CALM 0 0 0 0 1010.7 1009.8 0.0
02/05:00am 32.2 29.5 5.7 19 14.2 S 9 13 5 7 1010.0 1009.1 0.0
02/04:30am 33.1 29.7 3.9 16 15.3 WSW 11 15 6 8 1009.7 1008.8 0.0
02/04:00am 35.2 31.0 3.7 14 16.6 W 15 37 8 20 1009.1 1008.2 0.0
02/03:30am 32.9 28.5 2.9 15 15.4 N 15 22 8 12 1008.3 1007.3 0.0
02/03:00am 33.0 28.6 2.9 15 15.5 NNE 15 20 8 11 1008.0 1007.0 0.0
02/02:30am 33.9 28.7 2.7 14 16.1 NNE 19 26 10 14 1008.1 1007.1 0.0
02/02:00am 35.0 30.2 2.5 13 16.8 NNE 17 24 9 13 1008.2 1007.2 0.0
02/01:30am 35.5 30.4 2.9 13 17.0 N 19 28 10 15 1008.3 1007.3 0.0
02/01:00am 34.4 30.4 3.1 14 16.3 NNE 13 17 7 9 1008.6 1007.7 0.0
02/12:30am 34.7 30.6 2.3 13 16.7 NNE 13 15 7 8 1008.7 1007.8 0.0
02/12:00am 34.8 30.7 2.3 13 16.8 NNE 13 15 7 8 1008.8 1007.9 0.0
 
Date/Time
EST
Temp
°C
App
Temp
°C
Dew
Point
°C
Rel
Hum
%
Delta-T
°C
Wind Press
QNH
hPa
Press
MSL
hPa
Rain since
9am
mm
Dir  Spd
km/h
Gust
km/h
Spd
kts
Gust
kts
01/11:30pm 35.2 31.2 2.6 13 16.9 N 13 15 7 8 1009.0 1008.1 0.0
01/11:00pm 35.4 32.0 1.7 12 17.3 NNE 9 13 5 7 1009.1 1008.2 0.0
01/10:30pm 36.7 33.2 1.5 11 18.1 NNE 9 13 5 7 1009.0 1008.1 0.0
01/10:00pm 37.0 33.0 0.4 10 18.6 NNE 11 13 6 7 1008.8 1007.9 0.0
01/09:30pm 37.5 33.5 0.7 10 18.8 NNE 11 13 6 7 1008.7 1007.8 0.0
01/09:00pm 38.0 34.5 1.1 10 19.0 NNE 9 11 5 6 1008.5 1007.6 0.0
01/08:30pm 38.9 34.9 0.3 9 19.7 N 11 11 6 6 1008.4 1007.5 0.0
01/08:00pm 39.5 35.9 0.8 9 20.0 N 9 11 5 6 1008.1 1007.1 0.0
01/07:30pm 41.0 37.4 0.3 8 21.0 NNE 9 11 5 6 1007.9 1006.9 0.0
01/07:00pm 42.2 37.6 -0.7 7 22.1 NNE 13 19 7 10 1007.6 1006.6 0.0
01/06:30pm 43.0 38.2 -0.1 7 22.4 NNE 15 20 8 11 1007.4 1006.4 0.0
01/06:00pm 43.7 38.9 0.4 7 22.8 ENE 15 20 8 11 1007.0 1006.0 0.0
01/05:30pm 44.1 38.7 -1.5 6 23.4 NNE 17 28 9 15 1006.7 1005.7 0.0
01/05:00pm 44.1 37.7 -1.5 6 23.4 NE 22 33 12 18 1006.9 1005.9 0.0
01/04:30pm 44.4 39.0 -1.2 6 23.5 NNE 17 28 9 15 1006.8 1005.8 0.0
01/04:00pm 44.8 39.1 -1.0 6 23.8 NNE 19 30 10 16 1006.9 1005.9 0.0
01/03:30pm 44.6 40.4 -1.1 6 23.6 NNE 11 30 6 16 1007.2 1006.2 0.0
01/03:00pm 44.3 39.3 -1.3 6 23.5 NNE 15 28 8 15 1007.7 1006.7 0.0
01/02:30pm 44.5 37.9 -3.6 5 24.0 N 22 32 12 17 1008.1 1007.1 0.0
01/02:00pm 44.7 38.5 -3.5 5 24.1 N 20 35 11 19 1008.1 1007.1 0.0
01/01:30pm 45.1 39.1 -3.2 5 24.3 N 19 32 10 17 1008.8 1007.9 0.0
01/01:00pm 44.0 38.0 -1.5 6 23.3 N 20 35 11 19 1009.4 1008.5 0.0
01/12:36pm 43.8 38.4 -1.7 6 23.2 NNW 17 33 9 18 1009.6 1008.7 0.0
01/12:30pm 42.9 37.7 -0.2 7 22.4 NW 17 30 9 16 1009.7 1008.8 0.0

Other formats

Comma delimited format used in spreadsheet applications
http://www.bom.gov.au/fwo/IDQ60801/IDQ60801.94489.axf

JavaScript Object Notation format (JSON) in row-major order
http://www.bom.gov.au/fwo/IDQ60801/IDQ60801.94489.json

Data quality

Most of these data are generated automatically and are frequently updated. Quality checks on data are not normally performed. It is possible for incorrect values to appear. Refer to information at About Latest Weather Observations and please check the disclaimer before using these data.